Time;durP1;ratioP1;P1;durP2;ratioP2;P2;SDS_P1;SDS_P2;PMS_P1;PMS_P2;Temp;Humidity;BMP_temperature;BMP_pressure;BME280_temperature;BME280_humidity;BME280_pressure;Samples;Min_cycle;Max_cycle;Signal;HPM_P1;HPM_P2
2022/08/27 00:00:20;;;;;;;17.80;4.75;;;19.80;99.90;;;18.82;100.00;100796.50;5079295;28;20078;-75
2022/08/27 00:02:48;;;;;;;20.52;5.05;;;19.80;99.90;;;18.82;100.00;100788.50;5062343;28;20028;-75
2022/08/27 00:05:16;;;;;;;14.60;4.32;;;19.80;99.90;;;18.83;100.00;100795.53;5076722;28;20453;-74
2022/08/27 00:07:44;;;;;;;13.43;4.57;;;19.80;99.90;;;18.87;100.00;100804.13;5064712;28;20055;-74
2022/08/27 00:10:16;;;;;;;16.42;5.07;;;19.80;99.90;;;18.86;100.00;100813.97;5077683;28;20513;-74
2022/08/27 00:12:42;;;;;;;13.32;4.47;;;19.80;99.90;;;18.88;100.00;100809.34;5077954;28;20032;-75
2022/08/27 00:15:10;;;;;;;11.38;4.10;;;19.80;99.90;;;18.91;100.00;100816.25;5076026;28;20037;-74
2022/08/27 00:17:37;;;;;;;16.63;4.93;;;19.80;99.90;;;18.90;100.00;100807.41;5079917;28;20021;-75
2022/08/27 00:20:05;;;;;;;15.85;4.30;;;19.80;99.90;;;18.94;100.00;100811.53;5077655;28;20105;-74
2022/08/27 00:22:31;;;;;;;13.23;4.55;;;19.80;99.90;;;18.97;100.00;100816.63;5079474;28;20024;-75
2022/08/27 00:24:59;;;;;;;13.35;4.78;;;19.80;99.90;;;18.99;100.00;100820.00;5044871;28;20531;-75
2022/08/27 00:27:25;;;;;;;15.85;4.93;;;19.80;99.90;;;18.98;100.00;100812.97;5075849;28;20108;-75
2022/08/27 00:29:51;;;;;;;17.05;5.10;;;19.80;99.90;;;18.97;100.00;100795.25;5078380;28;20043;-74
2022/08/27 00:32:18;;;;;;;16.15;5.13;;;19.80;99.90;;;18.96;100.00;100788.25;5063527;28;20028;-74
2022/08/27 00:34:44;;;;;;;20.85;5.70;;;19.80;99.90;;;18.98;100.00;100786.28;5078531;28;20039;-75
2022/08/27 00:37:10;;;;;;;21.60;5.68;;;19.80;99.90;;;19.01;100.00;100787.88;5077320;28;21480;-75
2022/08/27 00:39:36;;;;;;;26.25;5.55;;;19.90;99.90;;;19.05;100.00;100792.00;5077244;28;20041;-75
2022/08/27 00:42:05;;;;;;;16.73;5.70;;;19.90;99.90;;;19.05;100.00;100782.16;5077323;28;20031;-75
2022/08/27 00:44:31;;;;;;;26.25;6.45;;;19.90;99.90;;;19.07;100.00;100779.38;5061853;28;20038;-75
2022/08/27 00:47:03;;;;;;;27.80;6.65;;;19.90;99.90;;;19.08;100.00;100775.72;5066294;28;20028;-75
2022/08/27 00:49:46;;;;;;;32.83;7.45;;;19.90;99.90;;;19.08;100.00;100774.88;5060917;28;20682;-75
2022/08/27 00:52:16;;;;;;;29.48;7.07;;;19.90;99.90;;;19.05;100.00;100768.81;5043687;28;20032;-75
2022/08/27 00:54:41;;;;;;;31.65;7.05;;;19.90;99.90;;;19.10;100.00;100770.25;5064053;28;20048;-75
2022/08/27 00:57:07;;;;;;;29.02;7.28;;;19.90;99.90;;;19.07;100.00;100763.34;5077435;28;20047;-74
2022/08/27 00:59:34;;;;;;;32.22;7.45;;;19.90;99.90;;;19.11;100.00;100759.44;5077154;28;20115;-75
2022/08/27 01:02:18;;;;;;;36.80;7.93;;;20.00;99.90;;;19.12;100.00;100760.31;5060099;28;20039;-75
2022/08/27 01:04:54;;;;;;;28.77;7.43;;;20.00;99.90;;;19.13;100.00;100762.00;5061960;28;20035;-74
2022/08/27 01:07:24;;;;;;;26.00;7.43;;;20.00;99.90;;;19.14;100.00;100759.22;5062207;28;20053;-75
2022/08/27 01:09:52;;;;;;;27.70;7.90;;;20.00;99.90;;;19.13;100.00;100760.16;5077490;28;20290;-75
2022/08/27 01:12:18;;;;;;;26.63;7.78;;;20.00;99.90;;;19.17;100.00;100766.09;5077481;28;20036;-74
2022/08/27 01:14:45;;;;;;;32.80;8.15;;;20.00;99.90;;;19.20;100.00;100764.03;5075142;28;20117;-75
2022/08/27 01:17:13;;;;;;;28.02;7.13;;;20.00;99.90;;;19.24;100.00;100762.81;5062882;28;20028;-75
2022/08/27 01:19:55;;;;;;;34.53;7.50;;;20.00;99.90;;;19.23;100.00;100765.59;5043379;28;20132;-75
2022/08/27 01:23:28;;;;;;;24.30;6.25;;;20.10;99.90;;;19.31;100.00;100763.16;5060347;28;20020;-75
2022/08/27 01:25:54;;;;;;;35.10;8.10;;;20.10;99.90;;;19.35;100.00;100772.63;5060270;28;20048;-74
2022/08/27 01:28:21;;;;;;;26.27;7.88;;;20.20;99.90;;;19.39;100.00;100770.50;5078958;28;20032;-75
2022/08/27 01:30:47;;;;;;;43.65;8.98;;;20.20;99.90;;;19.42;100.00;100767.59;5076727;28;20124;-75
2022/08/27 01:33:19;;;;;;;18.95;6.63;;;20.20;99.90;;;19.42;100.00;100763.09;5060419;28;20400;-75
2022/08/27 01:35:49;;;;;;;30.40;7.85;;;20.20;99.90;;;19.44;100.00;100765.66;5066533;28;20035;-75
2022/08/27 01:38:17;;;;;;;27.75;7.82;;;20.30;99.90;;;19.48;100.00;100769.75;5057032;28;20039;-75
2022/08/27 01:40:42;;;;;;;29.35;7.55;;;20.20;99.90;;;19.50;100.00;100764.28;5060593;28;20115;-75
2022/08/27 01:43:09;;;;;;;21.90;6.82;;;20.30;99.90;;;19.52;100.00;100765.84;5057632;28;20163;-74
2022/08/27 01:45:43;;;;;;;23.73;6.32;;;20.30;99.90;;;19.53;100.00;100767.56;5076144;28;20071;-75
2022/08/27 01:48:10;;;;;;;21.88;6.38;;;20.30;99.90;;;19.56;100.00;100759.28;5059887;28;20033;-75
2022/08/27 01:50:39;;;;;;;31.10;6.55;;;20.30;99.90;;;19.55;100.00;100756.75;5069190;28;20036;-75
2022/08/27 01:53:14;;;;;;;24.63;6.18;;;20.30;99.90;;;19.53;100.00;100758.69;5062989;28;20503;-74
2022/08/27 01:55:43;;;;;;;24.80;5.82;;;20.30;99.90;;;19.51;100.00;100766.84;5061825;28;20037;-74
2022/08/27 01:58:10;;;;;;;19.75;5.68;;;20.40;99.90;;;19.59;100.00;100774.19;5065406;28;20510;-75
2022/08/27 02:00:42;;;;;;;23.75;6.03;;;20.40;99.90;;;19.60;100.00;100771.38;5059141;28;20029;-74
2022/08/27 02:03:09;;;;;;;24.45;5.95;;;20.40;99.90;;;19.60;100.00;100771.38;5078048;28;20017;-75
2022/08/27 02:05:38;;;;;;;29.77;6.35;;;20.40;99.90;;;19.64;100.00;100774.66;5076682;28;20078;-74
2022/08/27 02:08:06;;;;;;;32.90;6.97;;;20.40;99.90;;;19.65;100.00;100779.88;5061555;28;20028;-75
2022/08/27 02:10:36;;;;;;;21.30;5.65;;;20.40;99.90;;;19.66;100.00;100776.22;5075451;28;20039;-75
2022/08/27 02:13:05;;;;;;;29.92;7.03;;;20.50;99.90;;;19.70;100.00;100775.97;5074035;28;20037;-74
2022/08/27 02:15:33;;;;;;;23.50;6.25;;;20.50;99.90;;;19.70;100.00;100775.97;5060645;28;21308;-75
2022/08/27 02:18:00;;;;;;;24.20;6.15;;;20.50;99.90;;;19.70;100.00;100771.50;5066403;28;20031;-75
2022/08/27 02:20:29;;;;;;;31.88;6.25;;;20.50;99.90;;;19.70;100.00;100766.16;5060691;28;20049;-75
2022/08/27 02:22:56;;;;;;;19.70;6.72;;;20.50;99.90;;;19.71;100.00;100765.19;5059460;28;20029;-75
2022/08/27 02:25:22;;;;;;;16.75;5.45;;;20.50;99.90;;;19.71;100.00;100767.84;5074430;28;20127;-75
2022/08/27 02:27:49;;;;;;;25.17;6.25;;;20.50;99.90;;;19.73;100.00;100771.25;5065710;28;20036;-75
2022/08/27 02:30:21;;;;;;;24.98;6.63;;;20.50;99.90;;;19.74;100.00;100769.41;5076163;28;20064;-76
2022/08/27 02:32:48;;;;;;;26.80;7.32;;;20.50;99.90;;;19.74;100.00;100770.28;5076543;28;20028;-75
2022/08/27 02:35:17;;;;;;;30.08;6.63;;;20.50;99.90;;;19.75;100.00;100781.81;5074626;28;20319;-75
2022/08/27 02:37:43;;;;;;;24.92;6.78;;;20.50;99.90;;;19.75;100.00;100785.31;5075846;28;20477;-76
2022/08/27 02:40:11;;;;;;;32.38;7.03;;;20.50;99.90;;;19.75;100.00;100798.69;5065576;28;20133;-75
2022/08/27 02:42:37;;;;;;;24.73;7.13;;;20.50;99.90;;;19.74;100.00;100799.66;5075533;28;20116;-75
2022/08/27 02:45:06;;;;;;;28.25;6.65;;;20.50;99.90;;;19.74;100.00;100794.31;5059251;28;20020;-76
2022/08/27 02:47:34;;;;;;;41.63;8.80;;;20.50;99.90;;;19.74;100.00;100797.00;5059428;28;20032;-75
2022/08/27 02:50:00;;;;;;;27.63;7.53;;;20.50;99.90;;;19.75;100.00;100801.34;5074054;28;20032;-75
2022/08/27 02:52:28;;;;;;;33.97;9.40;;;20.50;99.90;;;19.77;100.00;100803.91;5077226;28;20123;-76
2022/08/27 02:54:55;;;;;;;26.20;9.75;;;20.60;99.90;;;19.79;100.00;100807.28;5075080;28;20035;-76
2022/08/27 02:57:22;;;;;;;39.92;10.25;;;20.60;99.90;;;19.81;100.00;100808.00;5060313;28;20033;-75
2022/08/27 02:59:49;;;;;;;37.50;11.73;;;20.60;99.90;;;19.83;100.00;100806.91;5073131;28;20098;-75
2022/08/27 03:02:15;;;;;;;35.45;10.32;;;20.60;99.90;;;19.85;100.00;100812.97;5076204;28;20029;-76
2022/08/27 03:04:42;;;;;;;30.83;10.93;;;20.60;99.90;;;19.84;100.00;100805.06;5058355;28;20085;-75
2022/08/27 03:07:07;;;;;;;40.10;11.55;;;20.60;99.90;;;19.81;100.00;100806.19;5076161;28;20032;-75
2022/08/27 03:09:33;;;;;;;35.05;11.50;;;20.60;99.90;;;19.81;100.00;100808.84;5075736;28;20036;-76
2022/08/27 03:12:00;;;;;;;27.13;10.35;;;20.60;99.90;;;19.76;100.00;100800.38;5056811;28;20116;-76
2022/08/27 03:14:27;;;;;;;39.40;12.00;;;20.60;99.90;;;19.72;100.00;100790.06;5076319;28;20564;-76
2022/08/27 03:16:53;;;;;;;35.40;11.68;;;20.60;99.90;;;19.73;100.00;100789.94;5058120;28;20036;-76
2022/08/27 03:19:20;;;;;;;30.33;11.70;;;20.60;99.90;;;19.73;100.00;100787.28;5060491;28;20112;-75
2022/08/27 03:21:47;;;;;;;34.80;11.07;;;20.50;99.90;;;19.65;100.00;100795.91;5074457;28;20025;-75
2022/08/27 03:24:13;;;;;;;30.60;12.25;;;20.50;99.90;;;19.62;100.00;100798.81;5075429;28;20059;-76
2022/08/27 03:26:39;;;;;;;33.20;12.90;;;20.50;99.90;;;19.63;100.00;100788.97;5057980;28;20033;-75
2022/08/27 03:29:06;;;;;;;40.20;14.48;;;20.50;99.90;;;19.71;100.00;100785.72;5060692;28;20111;-76
2022/08/27 03:31:32;;;;;;;45.05;15.70;;;20.60;99.90;;;19.76;100.00;100780.81;5074363;28;20068;-76
2022/08/27 03:34:06;;;;;;;32.58;13.05;;;20.60;99.90;;;19.76;100.00;100775.47;5049298;28;20033;-75
2022/08/27 03:36:32;;;;;;;45.03;14.80;;;20.60;99.90;;;19.73;100.00;100779.25;5057554;28;20029;-75
2022/08/27 03:38:58;;;;;;;41.55;14.05;;;20.50;99.90;;;19.67;100.00;100777.94;5060958;28;20032;-75
2022/08/27 03:41:25;;;;;;;37.83;13.75;;;20.50;99.90;;;19.63;100.00;100783.63;5059391;28;20029;-76
2022/08/27 03:43:51;;;;;;;49.38;15.35;;;20.50;99.90;;;19.61;100.00;100783.78;5075395;28;20060;-76
2022/08/27 03:46:21;;;;;;;40.90;15.50;;;20.50;99.90;;;19.63;100.00;100788.97;5072284;28;20082;-76
2022/08/27 03:48:47;;;;;;;39.97;16.55;;;20.50;99.90;;;19.64;100.00;100791.53;5072440;28;20032;-75
2022/08/27 03:51:14;;;;;;;38.85;16.05;;;20.50;99.90;;;19.65;100.00;100784.34;5060095;28;20028;-76
2022/08/27 03:53:43;;;;;;;45.70;16.85;;;20.50;99.90;;;19.59;100.00;100787.53;5049038;28;20036;-75
2022/08/27 03:56:10;;;;;;;51.20;19.15;;;20.50;99.90;;;19.62;100.00;100787.31;5074146;28;20094;-75
2022/08/27 03:58:37;;;;;;;44.97;19.38;;;20.50;99.90;;;19.60;100.00;100781.22;5072922;28;20041;-75
2022/08/27 04:01:05;;;;;;;38.33;17.02;;;20.50;99.90;;;19.56;100.00;100779.78;5074214;28;20021;-76
2022/08/27 04:03:32;;;;;;;42.03;18.33;;;20.50;99.90;;;19.54;100.00;100779.06;5074934;28;20118;-75
2022/08/27 04:05:58;;;;;;;38.92;18.08;;;20.40;99.90;;;19.51;100.00;100782.00;5059870;28;20028;-76
2022/08/27 04:08:25;;;;;;;40.50;16.73;;;20.40;99.90;;;19.53;100.00;100777.41;5073780;28;20425;-76
2022/08/27 04:10:53;;;;;;;46.05;20.35;;;20.50;99.90;;;19.60;100.00;100787.41;5059870;28;20036;-76
2022/08/27 04:13:20;;;;;;;45.38;20.33;;;20.50;99.90;;;19.58;100.00;100781.34;5075100;28;20036;-75
2022/08/27 04:15:49;;;;;;;43.63;19.35;;;20.50;99.90;;;19.62;100.00;100784.63;5080280;28;20114;-76
2022/08/27 04:18:17;;;;;;;47.47;21.65;;;20.50;99.90;;;19.63;100.00;100791.66;5061038;28;20043;-75
2022/08/27 04:20:48;;;;;;;41.25;19.95;;;20.50;99.90;;;19.66;100.00;100786.06;5060005;28;20029;-75
2022/08/27 04:23:15;;;;;;;58.35;23.63;;;20.50;99.90;;;19.72;100.00;100793.59;5077267;28;20056;-75
2022/08/27 04:25:42;;;;;;;53.33;23.92;;;20.60;99.90;;;19.77;100.00;100786.03;5061467;28;20107;-75
2022/08/27 04:28:10;;;;;;;48.85;24.80;;;20.60;99.90;;;19.82;100.00;100782.97;5079622;28;20038;-76
2022/08/27 04:30:43;;;;;;;60.72;24.23;;;20.70;99.90;;;19.91;100.00;100784.84;5058910;28;20025;-76
2022/08/27 04:33:10;;;;;;;61.95;26.77;;;20.70;99.90;;;19.93;100.00;100779.38;5064677;28;20037;-76
2022/08/27 04:35:36;;;;;;;62.40;26.35;;;20.70;99.90;;;19.94;100.00;100779.28;5060867;28;20027;-76
2022/08/27 04:38:03;;;;;;;65.93;27.13;;;20.70;99.90;;;19.94;100.00;100778.44;5079219;28;20032;-75
2022/08/27 04:41:18;;;;;;;69.50;28.92;;;20.80;99.90;;;19.97;100.00;100776.31;5063644;28;20040;-75
2022/08/27 04:43:15;;;;;;;73.38;29.75;;;20.70;99.90;;;20.00;100.00;100778.75;5062653;28;20072;-75
2022/08/27 04:45:47;;;;;;;55.90;24.85;;;20.80;99.90;;;20.00;100.00;100778.75;5076901;28;20540;-76
2022/08/27 04:48:16;;;;;;;64.38;26.80;;;20.80;99.90;;;20.03;100.00;100783.81;5067065;28;20444;-76
2022/08/27 04:50:45;;;;;;;62.10;25.10;;;20.80;99.90;;;20.05;100.00;100786.38;5068452;28;20216;-76
2022/08/27 04:53:13;;;;;;;67.05;27.05;;;20.90;99.90;;;20.08;100.00;100786.09;5077687;28;20025;-76
2022/08/27 04:55:49;;;;;;;75.40;29.00;;;20.90;99.90;;;20.13;100.00;100773.19;5059591;28;20033;-76
2022/08/27 04:58:20;;;;;;;65.20;26.75;;;20.90;99.90;;;20.12;100.00;100776.00;5057666;28;20033;-76
2022/08/27 05:00:54;;;;;;;66.07;28.73;;;21.00;99.90;;;20.16;100.00;100778.25;5067230;28;20033;-76
2022/08/27 05:03:22;;;;;;;70.38;27.30;;;21.00;99.90;;;20.16;100.00;100780.94;5062241;28;20442;-76
2022/08/27 05:05:49;;;;;;;61.35;25.88;;;21.00;99.90;;;20.18;100.00;100778.97;5059347;28;20492;-76
2022/08/27 05:08:16;;;;;;;61.60;26.88;;;21.00;99.90;;;20.23;100.00;100789.28;5068524;28;20055;-76
2022/08/27 05:10:51;;;;;;;63.38;26.55;;;21.00;99.90;;;20.15;100.00;100781.06;5076567;28;20104;-76
2022/08/27 05:13:20;;;;;;;80.95;31.60;;;21.00;99.90;;;20.22;100.00;100784.91;5061952;28;20041;-76
2022/08/27 05:15:46;;;;;;;74.65;30.08;;;21.00;99.90;;;20.25;100.00;100776.63;5076795;28;20036;-76
2022/08/27 05:18:13;;;;;;;75.55;30.60;;;21.10;99.90;;;20.31;100.00;100776.09;5077659;28;20410;-76
2022/08/27 05:20:48;;;;;;;78.28;30.38;;;21.10;99.90;;;20.35;100.00;100782.03;5061654;22;20059;-77
2022/08/27 05:23:17;;;;;;;77.30;30.38;;;21.10;99.90;;;20.36;100.00;100776.53;5035686;28;20040;-78
2022/08/27 05:25:46;;;;;;;84.90;34.45;;;21.20;99.90;;;20.41;100.00;100786.81;5019399;28;20018;-77
2022/08/27 05:28:13;;;;;;;73.18;29.70;;;21.20;99.90;;;20.45;100.00;100777.56;5036028;28;20037;-77
2022/08/27 05:30:43;;;;;;;72.22;32.00;;;21.20;99.90;;;20.44;100.00;100781.22;5019057;28;20113;-77
2022/08/27 05:33:11;;;;;;;82.07;31.48;;;21.20;99.90;;;20.43;100.00;100783.06;5032025;28;20494;-77
2022/08/27 05:35:45;;;;;;;87.57;34.80;;;21.20;99.90;;;20.48;100.00;100783.50;5017626;28;20051;-77
2022/08/27 05:38:12;;;;;;;76.80;30.55;;;21.30;99.90;;;20.49;100.00;100777.16;5033027;28;20034;-77
2022/08/27 05:40:48;;;;;;;85.55;35.10;;;21.30;99.90;;;20.54;100.00;100782.13;5016862;28;20029;-77
2022/08/27 05:43:17;;;;;;;89.88;36.85;;;21.30;99.90;;;20.57;100.00;100779.19;5031945;28;20091;-77
2022/08/27 05:45:48;;;;;;;84.80;35.53;;;21.40;99.90;;;20.63;100.00;100777.81;5003024;28;20172;-77
2022/08/27 05:48:15;;;;;;;73.63;34.03;;;21.40;99.90;;;20.62;100.00;100779.63;5030384;28;20034;-77
2022/08/27 05:50:43;;;;;;;79.88;34.65;;;21.40;99.90;;;20.62;100.00;100782.28;5016401;28;20021;-77
2022/08/27 05:53:11;;;;;;;84.93;35.33;;;21.40;99.90;;;20.60;100.00;100775.41;5015895;28;20023;-76
2022/08/27 05:55:40;;;;;;;87.20;37.42;;;21.40;99.90;;;20.64;100.00;100782.16;5037680;28;20073;-77
2022/08/27 05:58:07;;;;;;;83.45;38.08;;;21.40;99.90;;;20.68;100.00;100781.75;5019297;28;20036;-77
2022/08/27 06:03:21;;;;;;;87.13;38.13;;;21.50;99.90;;;20.66;100.00;100778.38;5017011;28;20117;-77
2022/08/27 06:05:47;;;;;;;78.28;35.33;;;21.50;99.90;;;20.68;100.00;100781.75;5017592;28;20046;-77
2022/08/27 06:08:12;;;;;;;97.05;38.35;;;21.40;99.90;;;20.66;100.00;100781.03;5018203;28;20469;-77
2022/08/27 06:10:41;;;;;;;84.32;34.83;;;21.50;99.90;;;20.66;100.00;100783.72;5019141;28;20056;-77
2022/08/27 06:13:07;;;;;;;87.03;36.63;;;21.50;99.90;;;20.65;100.00;100782.03;5013008;28;20437;-76
2022/08/27 06:15:33;;;;;;;90.35;38.45;;;21.40;99.90;;;20.66;100.00;100790.91;5011722;28;20030;-76
2022/08/27 06:18:01;;;;;;;78.80;35.17;;;21.50;99.90;;;20.66;100.00;100789.06;5017041;28;20088;-77
2022/08/27 06:20:27;;;;;;;96.47;39.65;;;21.50;99.90;;;20.67;100.00;100787.28;5018141;28;20121;-76
2022/08/27 06:22:54;;;;;;;107.40;39.72;;;21.50;99.90;;;20.76;100.00;100786.44;5016554;28;20025;-76
2022/08/27 06:25:20;;;;;;;90.70;38.88;;;21.50;99.90;;;20.81;100.00;100780.69;5000099;28;20490;-76
2022/08/27 06:27:46;;;;;;;105.45;44.00;;;21.60;99.90;;;20.89;100.00;100776.34;5000236;28;20099;-77
2022/08/27 06:30:12;;;;;;;99.78;42.78;;;21.60;99.90;;;20.92;100.00;100777.88;5013448;28;20041;-76
2022/08/27 06:32:38;;;;;;;101.82;42.28;;;21.70;99.90;;;20.93;100.00;100774.25;5014840;28;20125;-76
2022/08/27 06:35:06;;;;;;;89.72;40.17;;;21.70;99.90;;;20.90;100.00;100778.00;5015518;28;20116;-75
2022/08/27 06:37:32;;;;;;;103.68;42.55;;;21.70;99.90;;;20.96;100.00;100779.31;5014881;28;20457;-77
2022/08/27 06:39:58;;;;;;;104.03;43.58;;;21.70;99.90;;;21.06;100.00;100776.66;5017251;28;20025;-77
2022/08/27 06:42:24;;;;;;;106.50;44.50;;;21.80;99.90;;;21.07;100.00;100778.34;5015270;28;20033;-77
2022/08/27 06:44:50;;;;;;;98.32;43.08;;;21.80;99.90;;;21.18;100.00;100775.53;4999395;28;20025;-76
2022/08/27 06:47:16;;;;;;;95.00;44.55;;;21.90;99.90;;;21.30;100.00;100776.28;5015616;28;20033;-76
2022/08/27 06:49:42;;;;;;;98.63;45.20;;;22.00;99.90;;;21.36;100.00;100783.75;5015696;28;20025;-77
2022/08/27 06:52:07;;;;;;;102.53;46.38;;;22.10;99.90;;;21.48;100.00;100781.78;5017952;28;20030;-77
2022/08/27 06:54:34;;;;;;;94.82;44.63;;;22.20;99.90;;;21.56;100.00;100786.47;5015085;28;20038;-77
2022/08/27 06:57:00;;;;;;;97.63;45.50;;;22.30;99.90;;;21.61;100.00;100785.03;5000278;28;20030;-77
2022/08/27 06:59:26;;;;;;;94.85;44.22;;;22.30;99.90;;;21.62;100.00;100783.19;5031492;28;20029;-77
2022/08/27 07:01:53;;;;;;;97.90;43.42;;;22.40;99.90;;;21.73;100.00;100787.56;5015345;28;20139;-77
2022/08/27 07:04:24;;;;;;;84.05;39.58;;;22.40;99.90;;;21.78;100.00;100788.84;5017277;28;20076;-76
2022/08/27 07:06:50;;;;;;;94.05;43.03;;;22.50;99.90;;;21.91;100.00;100783.19;5015098;28;20450;-77
2022/08/27 07:09:19;;;;;;;95.43;44.13;;;22.60;99.90;;;22.07;100.00;100783.44;5001219;28;20021;-77
2022/08/27 07:11:45;;;;;;;95.80;45.08;;;22.70;99.90;;;22.10;100.00;100782.28;5016276;28;20045;-77
2022/08/27 07:14:11;;;;;;;94.88;43.17;;;22.70;99.90;;;21.97;100.00;100782.59;5016031;28;20037;-77
2022/08/27 07:16:37;;;;;;;85.40;40.83;;;22.70;99.90;;;21.99;100.00;100790.50;5016795;28;20029;-77
2022/08/27 07:19:04;;;;;;;99.00;45.40;;;22.70;99.90;;;21.97;100.00;100792.50;5013183;28;20054;-77
2022/08/27 07:21:34;;;;;;;103.10;46.78;;;22.70;99.90;;;21.92;100.00;100804.47;5014684;28;20099;-77
2022/08/27 07:24:04;;;;;;;99.68;46.22;;;22.70;99.90;;;21.93;100.00;100810.69;5016213;28;20056;-77
2022/08/27 07:26:35;;;;;;;99.93;45.05;;;22.60;99.90;;;21.91;100.00;100809.97;5017720;28;20462;-81
2022/08/27 07:29:06;;;;;;;93.90;44.80;;;22.70;99.90;;;21.98;100.00;100810.25;5031620;28;20041;-77
2022/08/27 07:31:34;;;;;;;98.57;45.50;;;22.70;99.90;;;22.00;100.00;100805.59;5018844;28;20038;-77
2022/08/27 07:34:02;;;;;;;96.75;44.97;;;22.60;99.90;;;21.86;100.00;100794.31;5015103;28;20053;-77
2022/08/27 07:36:28;;;;;;;99.65;43.22;;;22.60;99.90;;;21.78;100.00;100786.16;5016110;28;20394;-77
2022/08/27 07:38:54;;;;;;;86.72;44.58;;;22.60;99.90;;;21.79;100.00;100771.78;5019756;28;20025;-77
2022/08/27 07:41:20;;;;;;;91.43;41.25;;;22.60;99.90;;;21.83;100.00;100775.84;5023645;28;20033;-77
2022/08/27 07:46:33;;;;;;;94.43;43.70;;;22.50;99.90;;;22.06;100.00;100776.38;5021084;28;20121;-77
2022/08/27 07:49:01;;;;;;;85.43;43.97;;;22.70;99.90;;;22.13;100.00;100785.50;5019663;28;20029;-78
2022/08/27 07:51:31;;;;;;;84.55;43.78;;;22.80;99.90;;;22.16;100.00;100784.41;5020860;28;20032;-77
2022/08/27 07:53:58;;;;;;;77.75;38.47;;;22.80;99.90;;;22.18;100.00;100801.19;5005212;28;20410;-76
2022/08/27 07:56:23;;;;;;;70.45;37.72;;;23.00;99.90;;;22.42;100.00;100805.22;5015437;28;20038;-77
2022/08/27 07:58:52;;;;;;;72.07;36.10;;;23.10;99.90;;;22.66;100.00;100804.72;5019105;28;20044;-77
2022/08/27 08:01:18;;;;;;;76.03;35.22;;;23.20;99.90;;;22.82;100.00;100806.75;5021728;28;20025;-77
2022/08/27 08:03:44;;;;;;;80.18;36.65;;;23.40;99.90;;;22.98;100.00;100820.38;5003955;28;20029;-76
2022/08/27 08:06:17;;;;;;;68.55;37.55;;;23.50;99.90;;;23.12;100.00;100819.06;5016118;28;20113;-76
2022/08/27 08:08:44;;;;;;;65.80;32.90;;;23.60;99.90;;;23.17;100.00;100829.34;5019441;28;20040;-77
2022/08/27 08:11:17;;;;;;;61.20;34.38;;;23.70;99.90;;;23.26;100.00;100825.75;5018301;28;20053;-76
2022/08/27 08:13:45;;;;;;;65.88;32.58;;;23.80;99.90;;;23.27;100.00;100825.59;5019090;28;20037;-76
2022/08/27 08:16:12;;;;;;;54.05;30.13;;;23.80;99.90;;;23.19;100.00;100838.94;5018220;28;20125;-77
2022/08/27 08:18:39;;;;;;;58.35;30.00;;;23.80;99.90;;;23.09;100.00;100846.22;5018493;28;20068;-77
2022/08/27 08:21:10;;;;;;;60.05;30.50;;;23.80;99.90;;;23.09;100.00;100846.22;5002112;28;20030;-76
2022/08/27 08:23:37;;;;;;;58.03;29.63;;;23.70;99.90;;;22.97;100.00;100842.00;5019033;28;20065;-77
2022/08/27 08:26:04;;;;;;;65.93;30.35;;;23.60;99.90;;;22.91;100.00;100846.13;5017200;28;20038;-77
2022/08/27 08:28:30;;;;;;;60.83;33.47;;;23.60;99.90;;;22.84;100.00;100847.72;5016444;28;20030;-77
2022/08/27 08:30:57;;;;;;;61.90;31.67;;;23.50;99.90;;;22.76;100.00;100843.09;5032739;28;20461;-77
2022/08/27 08:33:23;;;;;;;67.57;34.47;;;23.50;99.90;;;22.72;100.00;100839.88;5016933;28;20034;-77
2022/08/27 08:35:49;;;;;;;68.90;33.85;;;23.40;99.90;;;22.67;100.00;100844.81;5019252;28;20040;-76
2022/08/27 08:38:18;;;;;;;65.70;35.08;;;23.40;99.90;;;22.66;100.00;100844.97;5016078;28;20029;-77
2022/08/27 08:40:53;;;;;;;69.97;32.90;;;23.30;99.90;;;22.60;100.00;100854.47;5018596;28;20112;-77
2022/08/27 08:43:38;;;;;;;64.45;33.70;;;23.40;99.90;;;22.57;100.00;100846.72;5016987;28;20160;-76
2022/08/27 08:46:25;;;;;;;70.80;35.72;;;23.30;99.90;;;22.56;100.00;100854.91;5033064;28;20026;-77
2022/08/27 08:48:57;;;;;;;74.55;36.70;;;23.20;99.90;;;22.48;100.00;100850.25;5020234;28;20037;-76
2022/08/27 08:51:39;;;;;;;67.30;35.30;;;23.20;99.90;;;22.37;100.00;100853.09;5019989;28;20069;-76
2022/08/27 08:54:19;;;;;;;60.78;31.30;;;23.10;99.90;;;22.22;100.00;100850.00;5015378;28;20038;-77
2022/08/27 08:57:00;;;;;;;63.72;34.45;;;23.00;99.90;;;22.20;100.00;100860.03;5021193;28;20578;-77
2022/08/27 08:59:37;;;;;;;72.07;33.50;;;23.00;99.90;;;22.22;100.00;100858.91;5034466;28;20034;-77
2022/08/27 09:02:13;;;;;;;67.18;35.25;;;23.00;99.90;;;22.27;100.00;100870.06;5018567;28;20034;-77
2022/08/27 09:04:42;;;;;;;64.60;33.30;;;23.00;99.90;;;22.28;100.00;100869.06;5017184;28;20976;-77
2022/08/27 09:07:39;;;;;;;73.22;34.63;;;23.00;99.90;;;22.31;100.00;100871.50;5018336;28;20040;-76
2022/08/27 09:10:14;;;;;;;;;;;23.00;99.90;;;21.91;100.00;100875.16;5018114;28;20104;-76
2022/08/27 09:12:43;;;;;;;59.90;32.35;;;22.80;99.90;;;21.85;100.00;100875.72;5019079;28;19956;-76
2022/08/27 09:15:26;;;;;;;58.65;32.53;;;22.80;99.90;;;22.00;100.00;100869.94;5016488;28;20117;-77
2022/08/27 09:18:13;;;;;;;64.03;33.75;;;22.90;99.90;;;22.05;100.00;100851.56;5016571;28;20128;-75
2022/08/27 09:20:45;;;;;;;59.17;32.20;;;22.80;99.90;;;22.01;100.00;100852.84;5032460;28;20137;-76
2022/08/27 09:23:40;;;;;;;55.47;30.27;;;22.80;99.90;;;22.00;100.00;100853.84;5018132;28;20092;-76
2022/08/27 09:26:27;;;;;;;57.42;28.13;;;22.90;99.90;;;22.07;100.00;100849.59;5036630;28;20044;-77
2022/08/27 09:29:16;;;;;;;52.55;26.23;;;22.80;99.90;;;22.15;100.00;100844.38;5016724;28;20528;-77
2022/08/27 09:32:07;;;;;;;50.72;26.35;;;22.90;99.90;;;22.20;100.00;100850.16;5016770;28;20029;-77
2022/08/27 09:34:42;;;;;;;58.97;28.02;;;22.90;99.90;;;22.27;100.00;100851.31;5019182;28;20033;-77
2022/08/27 09:37:38;;;;;;;52.00;26.95;;;23.00;99.90;;;22.36;100.00;100854.13;5034666;28;20037;-77
2022/08/27 09:40:41;;;;;;;54.72;26.08;;;23.10;99.90;;;22.42;100.00;100856.19;5026063;28;20038;-77
2022/08/27 09:43:29;;;;;;;34.70;22.40;;;23.10;99.90;;;22.32;100.00;100857.06;5031177;28;20438;-76
2022/08/27 09:46:16;;;;;;;38.53;22.02;;;23.00;99.90;;;22.14;100.00;100853.41;5017967;28;20049;-77
2022/08/27 09:48:46;;;;;;;38.78;22.85;;;22.90;99.90;;;22.08;100.00;100857.50;5019865;28;20408;-76
2022/08/27 09:51:20;;;;;;;43.83;24.15;;;22.90;99.90;;;22.13;100.00;100849.03;5018789;28;20030;-76
2022/08/27 09:53:57;;;;;;;52.83;24.73;;;22.90;99.90;;;22.04;100.00;100845.38;5031019;28;20141;-76
2022/08/27 09:56:48;;;;;;;41.65;23.58;;;23.00;99.90;;;22.15;100.00;100851.56;5015686;28;20124;-76
2022/08/27 09:59:53;;;;;;;45.65;22.75;;;22.80;99.90;;;22.07;100.00;100841.56;5018160;28;20046;-76
2022/08/27 10:02:25;;;;;;;45.63;21.75;;;22.90;99.90;;;22.07;100.00;100825.47;4966865;28;20120;-77
2022/08/27 10:05:00;;;;;;;46.28;23.88;;;22.90;99.90;;;22.05;100.00;100824.75;4978620;28;20227;-77
2022/08/27 10:07:52;;;;;;;42.55;22.77;;;22.80;99.90;;;22.05;100.00;100825.63;5002948;28;20380;-77
2022/08/27 10:10:41;;;;;;;45.20;23.45;;;22.80;99.90;;;22.11;100.00;100821.50;5020118;28;20033;-77
2022/08/27 10:13:32;;;;;;;49.97;21.30;;;22.80;99.90;;;22.16;100.00;100813.03;5007624;28;20041;-77